Toto, Indiana
Current Conditions -  °F | °C
As of 11:15 AM on Wednesday 26 Nov 2014 (Local Time) from KOXI Reporting Station
Overcast Overcast  
Wind Chill: -7°   Ceiling: 1600
Heat Index: -3°   Visibility: 10mi
Dew Point: -7°   Wind: 7mph
Humidity: 76%   Direction: 150°SSE
Pressure: 30.14"   Gusts: NA
Location:  41.2954°N, 86.6039°W
Report Text: KOXI 261715Z AUTO 15006KT 10SM OVC016 M03/M07 A3014 RMK AO1 T10311068
Loading
Personal Weather Stations






























Interactive Weather Map New forecast layout! Learn more

10-Day Weather Forecast

Advertisements
Track Severe Weather on mobile